Terminal Aerodrome Forecast
Issued by NWS

Home | Current Version | Previous Version | Text Only | Print | Product List | Glossary On
Versions: 1 2 3 4 5 6 7 8 9 10 11 12 13 14 15 16 17 18 19 20 21 22 23 24
000
FTUS45 KGJT 221138
TAFRIL
TAF
KRIL 221138Z 2212/2312 00000KT P6SM SCT250
     FM222000 22005KT P6SM SCT070 OVC100
     FM230100 31008KT 3SM -SN BR BKN030 OVC050=

USA.gov is the U.S. government's official web portal to all federal, state and local government web resources and services.